Success, Arkansas
Current Conditions -  °F | °C
As of 3:35 AM on Saturday 25 Oct 2014 (Local Time) from K4M9 Reporting Station
Haze Haze  
Wind Chill: 55°   Ceiling: Unl
Heat Index: 55°   Visibility: 6mi
Dew Point: 55°   Wind: 7mph
Humidity: 100%   Direction: 220°SW
Pressure: 30.05"   Gusts: NA
Location:  36.45°N, 90.72°W
Report Text: K4M9 250835Z AUTO 22006KT 6SM BR CLR 13/13 A3005 RMK AO2
Loading
Personal Weather Stations






























Interactive Weather Map
Tropical Storm Tracking
New forecast layout! Learn more

10-Day Weather Forecast

Advertisements
Track Severe Weather on mobile